Terminal Aerodrome Forecast
Issued by NWS

Home | Current Version | Previous Version | Text Only | Print | Product List | Glossary On
Versions: 1 2 3 4 5 6 7 8 9 10 11 12 13 14 15 16 17 18 19 20 21 22 23 24 25
000
FTUS41 KGYX 291121
TAFLEB
TAF
KLEB 291121Z 2912/3012 00000KT P6SM SCT250
     FM292000 18004KT P6SM SCT100
     FM300200 17004KT P6SM SCT040 OVC100
     FM300600 17003KT 1 1/2SM -SN BR OVC015=

USA.gov is the U.S. government's official web portal to all federal, state and local government web resources and services.